To NAV CANADA Home Page Login to a new session Search on AWWS site Disclaimer Vers la page française équivalente Tips FAQ What's new on the site To the Forecasts and Observations / NOTAM section To "File a Flight Plan" website Publications and other links Update of the User's profile FIC Telephone Numbers My Weather Data Folder Route Weather Data Regional Weather Data Local Weather Data To the Forecasts and Observations / NOTAM section
Request Generated 01/22/2020 at 22:18:30 UTC . Weather information available at that time is displayed.

METAR/TAF

WINNIPEG/JAMES ARMSTRONG RICHARDSON INTL/MB    

METAR CYWG 222200Z 34005KT 15SM OVC014 M04/M06 A2990 RMK SC8 SLP143=
SPECI CYWG 222138Z 30004KT 15SM OVC014 M04/M06 A2989 RMK SC8 SLP139=
METAR CYWG 222100Z 28003KT 15SM OVC016 M04/M05 A2987 RMK SC8 SLP134=
METAR CYWG 222000Z 32005KT 15SM OVC017 M05/M06 A2984 RMK SC8 SLP123=

TAF AMD CYWG 221804Z 2218/2318 31006KT P6SM SCT012 OVC025 TEMPO
2218/2306 5SM -SN BR OVC012
BECMG 2301/2303 02008KT
FM230600 03006KT P6SM SCT020 BKN140 TEMPO 2306/2318 P6SM -SN
BKN020 OVC120
BECMG 2316/2318 07006KT
RMK NXT FCST BY 230000Z=
Your time UTC time
Weather data provided by Environment Canada and NAV CANADA